TimeGMT,TemperatureF,Dew PointF,Humidity,Sea Level PressureIn,VisibilityMPH,Wind Direction,Wind SpeedMPH,Gust SpeedMPH,PrecipitationIn,Events,Conditions,WindDirDegrees,DateUTC
12:20 AM,35.6,35.6,100,30.18,6.2,SE,3.5,-,N/A,,Scattered Clouds,140,2013-02-17 00:20:00
12:50 AM,35.6,33.8,93,30.18,6.2,SE,3.5,-,N/A,,Partly Cloudy,130,2013-02-17 00:50:00
1:20 AM,32.0,32.0,100,30.18,6.2,SE,3.5,-,N/A,,Partly Cloudy,140,2013-02-17 01:20:00
1:50 AM,32.0,32.0,100,30.15,-9999.0,SE,4.6,-,N/A,,Mist,140,2013-02-17 01:50:00
2:20 AM,33.8,33.8,100,30.15,3.7,SSE,3.5,-,N/A,,Unknown,150,2013-02-17 02:20:00
2:50 AM,32.0,30.2,93,30.15,2.5,SE,3.5,-,N/A,,Mist,140,2013-02-17 02:50:00
3:20 AM,32.0,32.0,100,30.15,-9999.0,SSE,3.5,-,N/A,,Clear,150,2013-02-17 03:20:00
3:50 AM,30.2,30.2,100,30.15,-9999.0,SSE,4.6,-,N/A,,Clear,150,2013-02-17 03:50:00
4:20 AM,28.4,28.4,100,30.15,-9999.0,SSE,4.6,-,N/A,,Clear,150,2013-02-17 04:20:00
4:50 AM,28.4,28.4,100,30.15,-9999.0,SE,2.3,-,N/A,,Clear,130,2013-02-17 04:50:00
5:20 AM,28.4,28.4,100,30.15,6.2,SE,3.5,-,N/A,Fog,Shallow Fog,140,2013-02-17 05:20:00
5:50 AM,28.4,28.4,100,30.15,6.2,SE,3.5,-,N/A,Fog,Shallow Fog,140,2013-02-17 05:50:00
6:20 AM,28.4,28.4,100,30.15,6.2,SE,4.6,-,N/A,Fog,Shallow Fog,140,2013-02-17 06:20:00
6:50 AM,28.4,28.4,100,30.15,5.0,SE,4.6,-,N/A,Fog,Fog,140,2013-02-17 06:50:00
7:20 AM,28.4,28.4,100,30.15,3.1,SE,4.6,-,N/A,Fog,Mist,140,2013-02-17 07:20:00
7:50 AM,30.2,30.2,100,30.15,3.7,SSE,4.6,-,N/A,Fog,Fog,150,2013-02-17 07:50:00
8:20 AM,30.2,30.2,100,30.15,3.7,SSE,4.6,-,N/A,Fog,Fog,150,2013-02-17 08:20:00
8:50 AM,33.8,33.8,100,30.15,3.7,SSE,5.8,-,N/A,,Partly Cloudy,150,2013-02-17 08:50:00
9:20 AM,35.6,35.6,100,30.15,1.6,SSE,6.9,-,N/A,,Overcast,150,2013-02-17 09:20:00
9:50 AM,35.6,35.6,100,30.15,0.5,SE,9.2,-,N/A,Fog,Fog,140,2013-02-17 09:50:00
10:20 AM,35.6,35.6,100,30.15,0.7,SSE,8.1,-,N/A,,Overcast,150,2013-02-17 10:20:00
10:50 AM,37.4,37.4,100,30.15,3.1,SSE,10.4,-,N/A,,Scattered Clouds,150,2013-02-17 10:50:00
11:20 AM,39.2,37.4,93,30.15,5.6,SSE,9.2,-,N/A,Fog,Patches of Fog,150,2013-02-17 11:20:00
11:50 AM,39.2,37.4,93,30.15,5.6,SE,10.4,-,N/A,,Mostly Cloudy,140,2013-02-17 11:50:00
12:20 PM,39.2,37.4,93,30.15,5.0,SE,9.2,-,N/A,,Mostly Cloudy,130,2013-02-17 12:20:00
12:50 PM,41.0,37.4,87,30.15,5.6,SE,6.9,-,N/A,,Partly Cloudy,130,2013-02-17 12:50:00
1:20 PM,42.8,37.4,81,30.12,6.2,SE,6.9,-,N/A,,Partly Cloudy,130,2013-02-17 13:20:00
1:50 PM,44.6,37.4,76,30.12,6.2,SE,9.2,-,N/A,,Partly Cloudy,130,2013-02-17 13:50:00
2:20 PM,44.6,37.4,76,30.09,6.2,SE,10.4,-,N/A,,Partly Cloudy,140,2013-02-17 14:20:00
2:50 PM,44.6,35.6,71,30.09,6.2,SE,10.4,-,N/A,,Partly Cloudy,130,2013-02-17 14:50:00
3:20 PM,44.6,35.6,71,30.09,6.2,SSE,10.4,-,N/A,,Partly Cloudy,150,2013-02-17 15:20:00
3:50 PM,44.6,33.8,66,30.09,6.2,SE,12.7,-,N/A,,Partly Cloudy,140,2013-02-17 15:50:00
4:20 PM,44.6,33.8,66,30.09,6.2,SSE,11.5,-,N/A,,Scattered Clouds,150,2013-02-17 16:20:00
4:50 PM,42.8,33.8,70,30.09,6.2,SE,8.1,-,N/A,,Scattered Clouds,140,2013-02-17 16:50:00
5:20 PM,39.2,32.0,75,30.09,6.2,SE,5.8,-,N/A,,Partly Cloudy,130,2013-02-17 17:20:00
5:50 PM,37.4,32.0,81,30.09,-9999.0,SE,4.6,-,N/A,,Clear,130,2013-02-17 17:50:00
6:20 PM,35.6,30.2,81,30.09,-9999.0,ESE,4.6,-,N/A,,Clear,120,2013-02-17 18:20:00
6:50 PM,39.2,32.0,75,30.09,-9999.0,ESE,6.9,-,N/A,,Clear,110,2013-02-17 18:50:00
7:50 PM,39.2,33.8,81,30.09,-9999.0,ESE,10.4,-,N/A,,Clear,110,2013-02-17 19:50:00
8:20 PM,37.4,33.8,87,30.09,-9999.0,ESE,9.2,-,N/A,,Clear,110,2013-02-17 20:20:00
8:50 PM,37.4,35.6,93,30.09,5.0,ESE,8.1,-,N/A,,Unknown,110,2013-02-17 20:50:00
9:20 PM,35.6,33.8,93,30.09,5.0,ESE,8.1,-,N/A,,Unknown,110,2013-02-17 21:20:00
9:50 PM,35.6,33.8,93,30.09,4.3,ESE,11.5,-,N/A,,Partly Cloudy,110,2013-02-17 21:50:00
10:20 PM,35.6,33.8,93,30.09,4.3,ESE,10.4,-,N/A,,Mostly Cloudy,110,2013-02-17 22:20:00
10:50 PM,35.6,33.8,93,30.09,4.3,ESE,9.2,-,N/A,,Mostly Cloudy,120,2013-02-17 22:50:00
11:20 PM,35.6,33.8,93,30.09,4.3,ESE,12.7,-,N/A,,Mostly Cloudy,120,2013-02-17 23:20:00
11:50 PM,35.6,33.8,93,30.09,4.3,ESE,11.5,-,N/A,,Mostly Cloudy,120,2013-02-17 23:50:00